sensor_id;sensor_type;location;lat;lon;timestamp;pressure;altitude;pressure_sealevel;temperature;humidity
54236;BME280;40151;43.606;1.472;2023-02-05T00:00:04;101369.16;;;16.47;53.19
54236;BME280;40151;43.606;1.472;2023-02-05T00:02:30;101362.16;;;16.46;52.81
54236;BME280;40151;43.606;1.472;2023-02-05T00:04:56;101350.72;;;16.47;53.15
54236;BME280;40151;43.606;1.472;2023-02-05T00:07:21;101353.34;;;16.47;53.10
54236;BME280;40151;43.606;1.472;2023-02-05T00:09:47;101348.91;;;16.49;52.89
54236;BME280;40151;43.606;1.472;2023-02-05T00:12:13;101343.66;;;16.49;53.13
54236;BME280;40151;43.606;1.472;2023-02-05T00:14:38;101348.06;;;16.47;53.04
54236;BME280;40151;43.606;1.472;2023-02-05T00:17:04;101350.66;;;16.48;53.05
54236;BME280;40151;43.606;1.472;2023-02-05T00:19:29;101348.06;;;16.47;53.04
54236;BME280;40151;43.606;1.472;2023-02-05T00:21:55;101346.28;;;16.47;53.08
54236;BME280;40151;43.606;1.472;2023-02-05T00:24:20;101344.56;;;16.45;53.29
54236;BME280;40151;43.606;1.472;2023-02-05T00:26:45;101342.72;;;16.53;52.82
54236;BME280;40151;43.606;1.472;2023-02-05T00:29:11;101338.38;;;16.49;53.03
54236;BME280;40151;43.606;1.472;2023-02-05T00:31:36;101337.47;;;16.50;52.87
54236;BME280;40151;43.606;1.472;2023-02-05T00:34:02;101335.72;;;16.52;53.15
54236;BME280;40151;43.606;1.472;2023-02-05T00:36:27;101335.72;;;16.52;52.66
54236;BME280;40151;43.606;1.472;2023-02-05T00:38:52;101341.00;;;16.52;52.81
54236;BME280;40151;43.606;1.472;2023-02-05T00:41:18;101343.63;;;16.50;52.73
54236;BME280;40151;43.606;1.472;2023-02-05T00:43:44;101347.13;;;16.51;52.68
54236;BME280;40151;43.606;1.472;2023-02-05T00:46:11;101345.38;;;16.53;52.89
54236;BME280;40151;43.606;1.472;2023-02-05T00:48:39;101349.75;;;16.54;53.05
54236;BME280;40151;43.606;1.472;2023-02-05T00:51:05;101351.53;;;16.52;53.08
54236;BME280;40151;43.606;1.472;2023-02-05T00:53:31;101348.84;;;16.54;52.81
54236;BME280;40151;43.606;1.472;2023-02-05T00:55:57;101342.72;;;16.53;52.67
54236;BME280;40151;43.606;1.472;2023-02-05T00:58:22;101350.66;;;16.51;52.96
54236;BME280;40151;43.606;1.472;2023-02-05T01:00:51;101352.41;;;16.51;52.98
54236;BME280;40151;43.606;1.472;2023-02-05T01:03:17;101356.81;;;16.52;52.72
54236;BME280;40151;43.606;1.472;2023-02-05T01:05:43;101350.63;;;16.55;52.85
54236;BME280;40151;43.606;1.472;2023-02-05T01:08:10;101354.19;;;16.49;53.14
54236;BME280;40151;43.606;1.472;2023-02-05T01:10:36;101350.66;;;16.50;53.29
54236;BME280;40151;43.606;1.472;2023-02-05T01:13:03;101362.03;;;16.55;52.87
54236;BME280;40151;43.606;1.472;2023-02-05T01:15:29;101347.09;;;16.54;52.99
54236;BME280;40151;43.606;1.472;2023-02-05T01:17:54;101347.09;;;16.56;52.87
54236;BME280;40151;43.606;1.472;2023-02-05T01:20:20;101348.84;;;16.55;52.80
54236;BME280;40151;43.606;1.472;2023-02-05T01:22:46;101346.19;;;16.58;53.04
54236;BME280;40151;43.606;1.472;2023-02-05T01:25:12;101342.72;;;16.53;52.78
54236;BME280;40151;43.606;1.472;2023-02-05T01:27:37;101346.19;;;16.58;52.75
54236;BME280;40151;43.606;1.472;2023-02-05T01:30:04;101358.47;;;16.59;52.69
54236;BME280;40151;43.606;1.472;2023-02-05T01:32:30;101358.47;;;16.58;52.85
54236;BME280;40151;43.606;1.472;2023-02-05T01:34:55;101354.94;;;16.60;52.87
54236;BME280;40151;43.606;1.472;2023-02-05T01:37:21;101348.81;;;16.58;52.67
54236;BME280;40151;43.606;1.472;2023-02-05T01:39:47;101357.56;;;16.60;52.81
54236;BME280;40151;43.606;1.472;2023-02-05T01:42:19;101361.94;;;16.61;52.85
54236;BME280;40151;43.606;1.472;2023-02-05T01:48:01;101355.00;;;16.56;53.01
54236;BME280;40151;43.606;1.472;2023-02-05T01:50:30;101360.28;;;16.54;52.98
54236;BME280;40151;43.606;1.472;2023-02-05T01:52:59;101364.63;;;16.58;52.71
54236;BME280;40151;43.606;1.472;2023-02-05T01:55:26;101359.31;;;16.60;52.84
54236;BME280;40151;43.606;1.472;2023-02-05T01:57:52;101351.47;;;16.58;53.03
54236;BME280;40151;43.606;1.472;2023-02-05T02:00:20;101356.69;;;16.61;52.79
54236;BME280;40151;43.606;1.472;2023-02-05T02:02:46;101358.47;;;16.61;52.62
54236;BME280;40151;43.606;1.472;2023-02-05T02:05:17;101364.59;;;16.61;52.92
54236;BME280;40151;43.606;1.472;2023-02-05T02:07:42;101359.31;;;16.60;52.74
54236;BME280;40151;43.606;1.472;2023-02-05T02:10:10;101359.31;;;16.60;52.88
54236;BME280;40151;43.606;1.472;2023-02-05T02:12:39;101354.91;;;16.62;52.69
54236;BME280;40151;43.606;1.472;2023-02-05T02:15:12;101354.03;;;16.63;52.56
54236;BME280;40151;43.606;1.472;2023-02-05T02:17:42;101344.38;;;16.63;52.60
54236;BME280;40151;43.606;1.472;2023-02-05T02:20:15;101344.38;;;16.63;52.84
54236;BME280;40151;43.606;1.472;2023-02-05T02:28:13;101346.09;;;16.64;52.81
54236;BME280;40151;43.606;1.472;2023-02-05T02:31:08;101344.38;;;16.63;52.87
54236;BME280;40151;43.606;1.472;2023-02-05T02:33:42;101344.31;;;16.67;52.76
54236;BME280;40151;43.606;1.472;2023-02-05T02:36:59;101346.09;;;16.64;52.69
54236;BME280;40151;43.606;1.472;2023-02-05T02:39:39;101338.19;;;16.64;53.05
54236;BME280;40151;43.606;1.472;2023-02-05T02:42:12;101350.47;;;16.67;52.62
54236;BME280;40151;43.606;1.472;2023-02-05T02:44:48;101346.97;;;16.65;52.78
54236;BME280;40151;43.606;1.472;2023-02-05T02:47:21;101343.41;;;16.68;52.68
54236;BME280;40151;43.606;1.472;2023-02-05T02:49:55;101336.41;;;16.65;52.52
54236;BME280;40151;43.606;1.472;2023-02-05T02:52:23;101331.19;;;16.63;53.02
54236;BME280;40151;43.606;1.472;2023-02-05T02:54:54;101327.59;;;16.68;52.71
54236;BME280;40151;43.606;1.472;2023-02-05T02:57:23;101334.59;;;16.69;52.88
54236;BME280;40151;43.606;1.472;2023-02-05T02:59:52;101335.50;;;16.68;52.97
54236;BME280;40151;43.606;1.472;2023-02-05T03:02:20;101330.22;;;16.71;52.46
54236;BME280;40151;43.606;1.472;2023-02-05T03:04:54;101342.50;;;16.72;52.70
54236;BME280;40151;43.606;1.472;2023-02-05T03:07:28;101344.28;;;16.70;52.87
54236;BME280;40151;43.606;1.472;2023-02-05T03:10:06;101345.13;;;16.70;52.94
54236;BME280;40151;43.606;1.472;2023-02-05T03:12:33;101346.88;;;16.71;52.93
54236;BME280;40151;43.606;1.472;2023-02-05T03:14:59;101346.03;;;16.71;52.59
54236;BME280;40151;43.606;1.472;2023-02-05T03:17:25;101348.66;;;16.71;52.57
54236;BME280;40151;43.606;1.472;2023-02-05T03:20:05;101360.03;;;16.76;52.82
54236;BME280;40151;43.606;1.472;2023-02-05T03:22:32;101354.84;;;16.70;52.58
54236;BME280;40151;43.606;1.472;2023-02-05T03:24:57;101353.97;;;16.66;52.79
54236;BME280;40151;43.606;1.472;2023-02-05T03:27:23;101355.66;;;16.73;52.68
54236;BME280;40151;43.606;1.472;2023-02-05T03:29:49;101361.84;;;16.71;52.85
54236;BME280;40151;43.606;1.472;2023-02-05T03:40:54;101341.59;;;16.74;52.50
54236;BME280;40151;43.606;1.472;2023-02-05T03:46:16;101340.69;;;16.74;52.80
54236;BME280;40151;43.606;1.472;2023-02-05T03:54:30;101350.34;;;16.75;52.52
54236;BME280;40151;43.606;1.472;2023-02-05T03:57:04;101359.13;;;16.78;52.78
54236;BME280;40151;43.606;1.472;2023-02-05T03:59:32;101354.78;;;16.73;52.50
54236;BME280;40151;43.606;1.472;2023-02-05T04:02:00;101357.41;;;16.74;52.75
54236;BME280;40151;43.606;1.472;2023-02-05T04:04:29;101357.34;;;16.77;52.97
54236;BME280;40151;43.606;1.472;2023-02-05T04:06:54;101362.59;;;16.79;52.66
54236;BME280;40151;43.606;1.472;2023-02-05T04:09:20;101362.59;;;16.79;52.84
54236;BME280;40151;43.606;1.472;2023-02-05T04:11:45;101358.25;;;16.75;52.72
54236;BME280;40151;43.606;1.472;2023-02-05T04:14:11;101358.25;;;16.75;52.90
54236;BME280;40151;43.606;1.472;2023-02-05T04:16:37;101366.97;;;16.80;52.62
54236;BME280;40151;43.606;1.472;2023-02-05T04:19:03;101364.41;;;16.75;52.58
54236;BME280;40151;43.606;1.472;2023-02-05T04:21:28;101374.88;;;16.80;52.71
54236;BME280;40151;43.606;1.472;2023-02-05T04:23:54;101374.03;;;16.78;52.67
54236;BME280;40151;43.606;1.472;2023-02-05T04:26:19;101365.22;;;16.81;52.74
54236;BME280;40151;43.606;1.472;2023-02-05T04:28:45;101366.97;;;16.80;52.87
54236;BME280;40151;43.606;1.472;2023-02-05T04:31:11;101377.50;;;16.83;52.62
54236;BME280;40151;43.606;1.472;2023-02-05T04:33:37;101375.75;;;16.82;52.78
54236;BME280;40151;43.606;1.472;2023-02-05T04:36:03;101372.22;;;16.83;52.92
54236;BME280;40151;43.606;1.472;2023-02-05T04:38:30;101374.03;;;16.78;53.11
54236;BME280;40151;43.606;1.472;2023-02-05T04:40:56;101378.41;;;16.81;52.92
54236;BME280;40151;43.606;1.472;2023-02-05T04:43:21;101376.66;;;16.81;52.68
54236;BME280;40151;43.606;1.472;2023-02-05T04:45:47;101374.84;;;16.85;52.58
54236;BME280;40151;43.606;1.472;2023-02-05T04:48:12;101384.53;;;16.83;52.71
54236;BME280;40151;43.606;1.472;2023-02-05T04:50:38;101374.88;;;16.82;52.58
54236;BME280;40151;43.606;1.472;2023-02-05T04:53:03;101379.22;;;16.87;52.38
54236;BME280;40151;43.606;1.472;2023-02-05T04:55:29;101384.50;;;16.87;52.60
54236;BME280;40151;43.606;1.472;2023-02-05T04:57:57;101380.09;;;16.86;52.57
54236;BME280;40151;43.606;1.472;2023-02-05T05:00:23;101366.97;;;16.82;52.89
54236;BME280;40151;43.606;1.472;2023-02-05T05:02:49;101366.94;;;16.83;52.72
54236;BME280;40151;43.606;1.472;2023-02-05T05:05:14;101375.69;;;16.85;52.63
54236;BME280;40151;43.606;1.472;2023-02-05T05:07:40;101377.44;;;16.86;52.57
54236;BME280;40151;43.606;1.472;2023-02-05T05:10:06;101368.69;;;16.84;53.00
54236;BME280;40151;43.606;1.472;2023-02-05T05:12:33;101371.25;;;16.89;52.80
54236;BME280;40151;43.606;1.472;2023-02-05T05:14:59;101372.16;;;16.88;52.59
54236;BME280;40151;43.606;1.472;2023-02-05T05:17:24;101365.16;;;16.85;52.73
54236;BME280;40151;43.606;1.472;2023-02-05T05:19:50;101379.16;;;16.90;52.90
54236;BME280;40151;43.606;1.472;2023-02-05T05:22:15;101375.69;;;16.88;52.75
54236;BME280;40151;43.606;1.472;2023-02-05T05:24:41;101380.94;;;16.88;52.51
54236;BME280;40151;43.606;1.472;2023-02-05T05:27:06;101382.69;;;16.91;52.87
54236;BME280;40151;43.606;1.472;2023-02-05T05:29:31;101372.97;;;16.91;52.54
54236;BME280;40151;43.606;1.472;2023-02-05T05:31:57;101364.25;;;16.88;52.50
54236;BME280;40151;43.606;1.472;2023-02-05T05:34:22;101374.78;;;16.88;52.85
54236;BME280;40151;43.606;1.472;2023-02-05T05:36:48;101361.59;;;16.89;52.76
54236;BME280;40151;43.606;1.472;2023-02-05T05:39:14;101365.97;;;16.92;52.87
54236;BME280;40151;43.606;1.472;2023-02-05T05:41:58;101363.34;;;16.90;52.73
54236;BME280;40151;43.606;1.472;2023-02-05T05:44:42;101359.78;;;16.95;52.98
54236;BME280;40151;43.606;1.472;2023-02-05T05:47:08;101356.25;;;16.92;52.79
54236;BME280;40151;43.606;1.472;2023-02-05T05:49:33;101361.53;;;16.92;52.71
54236;BME280;40151;43.606;1.472;2023-02-05T05:51:59;101362.41;;;16.95;52.59
54236;BME280;40151;43.606;1.472;2023-02-05T05:54:24;101363.31;;;16.92;52.81
54236;BME280;40151;43.606;1.472;2023-02-05T05:56:51;101358.06;;;16.90;52.78
54236;BME280;40151;43.606;1.472;2023-02-05T05:59:17;101365.03;;;16.95;52.48
54236;BME280;40151;43.606;1.472;2023-02-05T06:01:42;101361.50;;;16.96;52.72
54236;BME280;40151;43.606;1.472;2023-02-05T06:04:08;101365.00;;;16.98;52.85
54236;BME280;40151;43.606;1.472;2023-02-05T06:06:33;101366.72;;;16.99;52.60
54236;BME280;40151;43.606;1.472;2023-02-05T06:08:59;101365.03;;;16.95;52.80
54236;BME280;40151;43.606;1.472;2023-02-05T06:11:24;101373.78;;;17.00;52.46
54236;BME280;40151;43.606;1.472;2023-02-05T06:13:50;101377.28;;;16.99;52.67
54236;BME280;40151;43.606;1.472;2023-02-05T06:16:16;101368.50;;;17.00;52.80
54236;BME280;40151;43.606;1.472;2023-02-05T06:18:41;101367.63;;;16.98;52.50
54236;BME280;40151;43.606;1.472;2023-02-05T06:21:07;101357.06;;;16.98;52.43
54236;BME280;40151;43.606;1.472;2023-02-05T06:23:33;101359.75;;;16.96;52.67
54236;BME280;40151;43.606;1.472;2023-02-05T06:25:59;101361.44;;;16.99;52.89
54236;BME280;40151;43.606;1.472;2023-02-05T06:28:24;101351.81;;;16.98;52.68
54236;BME280;40151;43.606;1.472;2023-02-05T06:30:50;101364.97;;;17.01;52.57
54236;BME280;40151;43.606;1.472;2023-02-05T06:33:15;101363.19;;;17.03;52.62
54236;BME280;40151;43.606;1.472;2023-02-05T06:35:42;101363.22;;;17.00;52.45
54236;BME280;40151;43.606;1.472;2023-02-05T06:38:08;101367.63;;;17.02;52.35
54236;BME280;40151;43.606;1.472;2023-02-05T06:40:33;101363.22;;;17.00;52.39
54236;BME280;40151;43.606;1.472;2023-02-05T06:42:59;101372.91;;;17.02;52.26
54236;BME280;40151;43.606;1.472;2023-02-05T06:45:24;101359.69;;;17.01;52.39
54236;BME280;40151;43.606;1.472;2023-02-05T06:47:50;101362.28;;;17.06;52.50
54236;BME280;40151;43.606;1.472;2023-02-05T06:50:17;101366.69;;;17.05;52.83
54236;BME280;40151;43.606;1.472;2023-02-05T06:52:44;101377.19;;;17.08;52.39
54236;BME280;40151;43.606;1.472;2023-02-05T06:55:09;101374.56;;;17.08;52.50
54236;BME280;40151;43.606;1.472;2023-02-05T06:57:36;101384.22;;;17.09;52.39
54236;BME280;40151;43.606;1.472;2023-02-05T07:00:03;101374.56;;;17.07;52.47
54236;BME280;40151;43.606;1.472;2023-02-05T07:02:29;101380.75;;;17.04;52.65
54236;BME280;40151;43.606;1.472;2023-02-05T07:04:55;101378.13;;;17.04;52.67
54236;BME280;40151;43.606;1.472;2023-02-05T07:07:20;101396.53;;;17.09;52.38
54236;BME280;40151;43.606;1.472;2023-02-05T07:09:45;101386.84;;;17.11;52.54
54236;BME280;40151;43.606;1.472;2023-02-05T07:12:11;101393.03;;;17.08;52.60
54236;BME280;40151;43.606;1.472;2023-02-05T07:14:40;101391.22;;;17.10;52.39
54236;BME280;40151;43.606;1.472;2023-02-05T07:17:07;101396.50;;;17.10;52.76
54236;BME280;40151;43.606;1.472;2023-02-05T07:19:34;101398.28;;;17.10;52.43
54236;BME280;40151;43.606;1.472;2023-02-05T07:21:59;101393.91;;;17.07;52.33
54236;BME280;40151;43.606;1.472;2023-02-05T07:24:24;101405.31;;;17.09;52.65
54236;BME280;40151;43.606;1.472;2023-02-05T07:26:50;101401.84;;;17.07;52.69
54236;BME280;40151;43.606;1.472;2023-02-05T07:29:15;101401.78;;;17.10;52.59
54236;BME280;40151;43.606;1.472;2023-02-05T07:31:43;101407.06;;;17.10;52.65
54236;BME280;40151;43.606;1.472;2023-02-05T07:34:09;101410.53;;;17.14;52.71
54236;BME280;40151;43.606;1.472;2023-02-05T07:36:34;101422.78;;;17.16;52.58
54236;BME280;40151;43.606;1.472;2023-02-05T07:38:59;101425.50;;;17.12;52.54
54236;BME280;40151;43.606;1.472;2023-02-05T07:41:25;101427.22;;;17.14;52.55
54236;BME280;40151;43.606;1.472;2023-02-05T07:43:52;101433.41;;;17.13;52.50
54236;BME280;40151;43.606;1.472;2023-02-05T07:46:18;101425.50;;;17.13;52.60
54236;BME280;40151;43.606;1.472;2023-02-05T07:48:44;101424.66;;;17.11;52.67
54236;BME280;40151;43.606;1.472;2023-02-05T07:51:15;101430.78;;;17.10;52.54
54236;BME280;40151;43.606;1.472;2023-02-05T07:53:41;101441.31;;;17.13;52.70
54236;BME280;40151;43.606;1.472;2023-02-05T07:56:08;101444.84;;;17.14;52.52
54236;BME280;40151;43.606;1.472;2023-02-05T07:58:33;101442.22;;;17.12;52.48
54236;BME280;40151;43.606;1.472;2023-02-05T08:01:00;101443.91;;;17.16;52.39
54236;BME280;40151;43.606;1.472;2023-02-05T08:03:27;101442.16;;;17.17;52.39
54236;BME280;40151;43.606;1.472;2023-02-05T08:05:53;101450.94;;;17.17;52.35
54236;BME280;40151;43.606;1.472;2023-02-05T08:08:18;101457.91;;;17.22;52.37
54236;BME280;40151;43.606;1.472;2023-02-05T08:10:44;101457.03;;;17.23;52.36
54236;BME280;40151;43.606;1.472;2023-02-05T08:13:11;101451.78;;;17.20;52.54
54236;BME280;40151;43.606;1.472;2023-02-05T08:15:39;101464.06;;;17.21;52.63
54236;BME280;40151;43.606;1.472;2023-02-05T08:18:05;101446.53;;;17.18;52.31
54236;BME280;40151;43.606;1.472;2023-02-05T08:20:31;101459.69;;;17.23;52.36
54236;BME280;40151;43.606;1.472;2023-02-05T08:22:56;101463.19;;;17.22;52.25
54236;BME280;40151;43.606;1.472;2023-02-05T08:25:22;101457.91;;;17.22;52.47
54236;BME280;40151;43.606;1.472;2023-02-05T08:27:49;101460.53;;;17.22;52.23
54236;BME280;40151;43.606;1.472;2023-02-05T08:30:17;101459.69;;;17.20;52.54
54236;BME280;40151;43.606;1.472;2023-02-05T08:32:48;101469.34;;;17.22;52.30
54236;BME280;40151;43.606;1.472;2023-02-05T08:35:14;101475.50;;;17.23;52.42
54236;BME280;40151;43.606;1.472;2023-02-05T08:37:40;101478.97;;;17.25;52.05
54236;BME280;40151;43.606;1.472;2023-02-05T08:40:07;101473.72;;;17.25;52.09
54236;BME280;40151;43.606;1.472;2023-02-05T08:42:33;101484.28;;;17.22;52.38
54236;BME280;40151;43.606;1.472;2023-02-05T08:44:59;101484.25;;;17.25;52.32
54236;BME280;40151;43.606;1.472;2023-02-05T08:47:25;101486.00;;;17.26;52.39
54236;BME280;40151;43.606;1.472;2023-02-05T08:49:52;101486.88;;;17.26;52.36
54236;BME280;40151;43.606;1.472;2023-02-05T08:52:18;101490.38;;;17.27;52.15
54236;BME280;40151;43.606;1.472;2023-02-05T08:54:43;101498.34;;;17.24;52.28
54236;BME280;40151;43.606;1.472;2023-02-05T08:57:09;101502.72;;;17.26;52.29
54236;BME280;40151;43.606;1.472;2023-02-05T08:59:35;101507.09;;;17.29;52.32
54236;BME280;40151;43.606;1.472;2023-02-05T09:02:01;101512.38;;;17.29;52.09
54236;BME280;40151;43.606;1.472;2023-02-05T09:04:27;101512.38;;;17.29;52.27
54236;BME280;40151;43.606;1.472;2023-02-05T09:06:52;101517.63;;;17.29;52.22
54236;BME280;40151;43.606;1.472;2023-02-05T09:09:18;101517.63;;;17.29;52.33
54236;BME280;40151;43.606;1.472;2023-02-05T09:11:47;101524.66;;;17.30;52.34
54236;BME280;40151;43.606;1.472;2023-02-05T09:14:13;101521.16;;;17.28;52.24
54236;BME280;40151;43.606;1.472;2023-02-05T09:16:39;101522.88;;;17.32;52.24
54236;BME280;40151;43.606;1.472;2023-02-05T09:19:06;101528.13;;;17.32;52.48
54236;BME280;40151;43.606;1.472;2023-02-05T09:21:31;101520.22;;;17.34;52.51
54236;BME280;40151;43.606;1.472;2023-02-05T09:23:57;101512.31;;;17.32;52.22
54236;BME280;40151;43.606;1.472;2023-02-05T09:26:23;101507.03;;;17.32;52.54
54236;BME280;40151;43.606;1.472;2023-02-05T09:28:48;101504.38;;;17.34;52.52
54236;BME280;40151;43.606;1.472;2023-02-05T09:31:16;101507.84;;;17.37;52.31
54236;BME280;40151;43.606;1.472;2023-02-05T09:33:43;101513.13;;;17.37;52.37
54236;BME280;40151;43.606;1.472;2023-02-05T09:36:14;101512.22;;;17.38;52.33
54236;BME280;40151;43.606;1.472;2023-02-05T09:38:40;101514.91;;;17.35;52.14
54236;BME280;40151;43.606;1.472;2023-02-05T09:41:19;101517.50;;;17.38;52.37
54236;BME280;40151;43.606;1.472;2023-02-05T09:43:56;101510.50;;;17.37;52.45
54236;BME280;40151;43.606;1.472;2023-02-05T09:46:35;101515.75;;;17.40;52.11
54236;BME280;40151;43.606;1.472;2023-02-05T09:49:20;101522.75;;;17.41;52.14
54236;BME280;40151;43.606;1.472;2023-02-05T09:51:56;101525.41;;;17.40;52.22
54236;BME280;40151;43.606;1.472;2023-02-05T09:54:28;101532.44;;;17.41;52.11
54236;BME280;40151;43.606;1.472;2023-02-05T09:56:58;101524.53;;;17.39;52.22
54236;BME280;40151;43.606;1.472;2023-02-05T09:59:26;101526.25;;;17.42;52.22
54236;BME280;40151;43.606;1.472;2023-02-05T10:01:59;101526.28;;;17.40;52.32
54236;BME280;40151;43.606;1.472;2023-02-05T10:04:26;101535.97;;;17.41;52.00
54236;BME280;40151;43.606;1.472;2023-02-05T10:13:35;101525.41;;;17.40;52.03
54236;BME280;40151;43.606;1.472;2023-02-05T10:15:47;101524.50;;;17.42;51.94
54236;BME280;40151;43.606;1.472;2023-02-05T10:21:15;101519.25;;;17.39;52.20
54236;BME280;40151;43.606;1.472;2023-02-05T10:24:07;101529.78;;;17.42;52.08
54236;BME280;40151;43.606;1.472;2023-02-05T10:26:45;101515.75;;;17.40;52.05
54236;BME280;40151;43.606;1.472;2023-02-05T10:29:15;101512.16;;;17.44;52.20
54236;BME280;40151;43.606;1.472;2023-02-05T10:37:12;101518.25;;;17.50;52.18
54236;BME280;40151;43.606;1.472;2023-02-05T10:39:38;101515.66;;;17.47;52.27
54236;BME280;40151;43.606;1.472;2023-02-05T10:44:42;101513.84;;;17.49;52.11
54236;BME280;40151;43.606;1.472;2023-02-05T10:47:16;101504.13;;;17.52;51.92
54236;BME280;40151;43.606;1.472;2023-02-05T10:49:56;101498.84;;;17.52;52.17
54236;BME280;40151;43.606;1.472;2023-02-05T10:52:25;101497.09;;;17.51;51.90
54236;BME280;40151;43.606;1.472;2023-02-05T10:54:51;101496.19;;;17.54;51.94
54236;BME280;40151;43.606;1.472;2023-02-05T10:57:19;101497.97;;;17.52;51.83
54236;BME280;40151;43.606;1.472;2023-02-05T10:59:55;101496.19;;;17.54;51.66
54236;BME280;40151;43.606;1.472;2023-02-05T11:02:21;101483.84;;;17.56;51.35
54236;BME280;40151;43.606;1.472;2023-02-05T11:05:00;101481.19;;;17.56;51.15
54236;BME280;40151;43.606;1.472;2023-02-05T11:07:39;101471.50;;;17.58;50.80
54236;BME280;40151;43.606;1.472;2023-02-05T11:10:20;101465.34;;;17.56;50.67
54236;BME280;40151;43.606;1.472;2023-02-05T11:12:51;101460.94;;;17.58;50.84
54236;BME280;40151;43.606;1.472;2023-02-05T11:15:25;101460.91;;;17.60;50.92
54236;BME280;40151;43.606;1.472;2023-02-05T11:17:59;101454.72;;;17.61;51.01
54236;BME280;40151;43.606;1.472;2023-02-05T11:20:34;101452.06;;;17.62;50.98
54236;BME280;40151;43.606;1.472;2023-02-05T11:23:21;101452.06;;;17.62;50.93
54236;BME280;40151;43.606;1.472;2023-02-05T11:25:52;101448.53;;;17.63;51.11
54236;BME280;40151;43.606;1.472;2023-02-05T11:28:29;101441.50;;;17.62;51.00
54236;BME280;40151;43.606;1.472;2023-02-05T11:30:55;101438.03;;;17.60;50.34
54236;BME280;40151;43.606;1.472;2023-02-05T11:35:54;101436.31;;;17.56;49.69
54236;BME280;40151;43.606;1.472;2023-02-05T11:38:29;101436.28;;;17.59;49.58
54236;BME280;40151;43.606;1.472;2023-02-05T11:41:01;101439.72;;;17.64;49.26
54236;BME280;40151;43.606;1.472;2023-02-05T11:43:35;101434.50;;;17.61;49.58
54236;BME280;40151;43.606;1.472;2023-02-05T11:46:05;101433.56;;;17.64;49.52
54236;BME280;40151;43.606;1.472;2023-02-05T11:48:39;101429.09;;;17.67;49.71
54236;BME280;40151;43.606;1.472;2023-02-05T11:51:07;101441.38;;;17.71;49.78
54236;BME280;40151;43.606;1.472;2023-02-05T11:53:34;101435.22;;;17.69;49.97
54236;BME280;40151;43.606;1.472;2023-02-05T11:56:08;101433.44;;;17.71;49.86
54236;BME280;40151;43.606;1.472;2023-02-05T11:58:34;101435.28;;;17.68;50.07
54236;BME280;40151;43.606;1.472;2023-02-05T12:01:03;101435.19;;;17.73;50.14
54236;BME280;40151;43.606;1.472;2023-02-05T12:03:31;101435.19;;;17.73;50.12
54236;BME280;40151;43.606;1.472;2023-02-05T12:06:17;101435.28;;;17.68;50.36
54236;BME280;40151;43.606;1.472;2023-02-05T12:08:51;101427.47;;;17.60;52.42
54236;BME280;40151;43.606;1.472;2023-02-05T12:19:48;101420.66;;;17.43;52.63
54236;BME280;40151;43.606;1.472;2023-02-05T12:28:01;101404.97;;;17.34;52.09
54236;BME280;40151;43.606;1.472;2023-02-05T12:33:53;101396.00;;;17.46;52.42
54236;BME280;40151;43.606;1.472;2023-02-05T12:41:43;101387.16;;;17.49;51.20
54236;BME280;40151;43.606;1.472;2023-02-05T12:52:25;101373.03;;;17.53;49.62
54236;BME280;40151;43.606;1.472;2023-02-05T12:55:14;101363.31;;;17.55;50.26
54236;BME280;40151;43.606;1.472;2023-02-05T12:57:50;101361.59;;;17.52;49.28
54236;BME280;40151;43.606;1.472;2023-02-05T13:00:41;101353.69;;;17.51;48.60
54236;BME280;40151;43.606;1.472;2023-02-05T13:06:32;101351.31;;;17.34;48.79
54236;BME280;40151;43.606;1.472;2023-02-05T13:08:59;101347.00;;;17.28;49.12
54236;BME280;40151;43.606;1.472;2023-02-05T13:11:41;101336.53;;;17.22;49.41
54236;BME280;40151;43.606;1.472;2023-02-05T13:14:43;101342.75;;;17.19;49.29
54236;BME280;40151;43.606;1.472;2023-02-05T13:17:21;101326.16;;;17.12;49.02
54236;BME280;40151;43.606;1.472;2023-02-05T13:19:53;101320.88;;;17.12;49.40
54236;BME280;40151;43.606;1.472;2023-02-05T13:22:39;101317.38;;;17.10;49.20
54236;BME280;40151;43.606;1.472;2023-02-05T13:25:41;101314.81;;;17.06;49.37
54236;BME280;40151;43.606;1.472;2023-02-05T13:33:46;101312.31;;;16.95;49.76
54236;BME280;40151;43.606;1.472;2023-02-05T13:55:23;101284.41;;;16.78;50.75
54236;BME280;40151;43.606;1.472;2023-02-05T13:58:08;101279.13;;;16.78;50.44
54236;BME280;40151;43.606;1.472;2023-02-05T14:00:38;101273.06;;;16.73;50.53
54236;BME280;40151;43.606;1.472;2023-02-05T14:03:05;101275.69;;;16.73;50.66
54236;BME280;40151;43.606;1.472;2023-02-05T14:05:36;101281.88;;;16.69;51.12
54236;BME280;40151;43.606;1.472;2023-02-05T14:08:03;101282.75;;;16.71;51.19
54236;BME280;40151;43.606;1.472;2023-02-05T14:10:36;101281.94;;;16.67;51.02
54236;BME280;40151;43.606;1.472;2023-02-05T14:15:41;101277.41;;;16.77;51.67
54236;BME280;40151;43.606;1.472;2023-02-05T14:20:55;101276.41;;;16.84;51.10
54236;BME280;40151;43.606;1.472;2023-02-05T14:26:12;101277.50;;;16.71;50.94
54236;BME280;40151;43.606;1.472;2023-02-05T14:28:49;101280.03;;;16.75;51.18
54236;BME280;40151;43.606;1.472;2023-02-05T14:31:52;101279.16;;;16.75;51.14
54236;BME280;40151;43.606;1.472;2023-02-05T14:34:43;101276.59;;;16.70;51.23
54236;BME280;40151;43.606;1.472;2023-02-05T14:37:24;101266.06;;;16.70;51.35
54236;BME280;40151;43.606;1.472;2023-02-05T14:39:50;101265.22;;;16.67;51.22
54236;BME280;40151;43.606;1.472;2023-02-05T14:42:19;101263.50;;;16.66;51.69
54236;BME280;40151;43.606;1.472;2023-02-05T14:44:52;101261.72;;;16.66;51.40
54236;BME280;40151;43.606;1.472;2023-02-05T14:47:25;101268.78;;;16.62;51.39
54236;BME280;40151;43.606;1.472;2023-02-05T14:49:58;101261.84;;;16.58;51.72
54236;BME280;40151;43.606;1.472;2023-02-05T14:52:38;101267.03;;;16.64;52.08